Time;durP1;ratioP1;P1;durP2;ratioP2;P2;SDS_P1;SDS_P2;PMS_P1;PMS_P2;Temp;Humidity;BMP_temperature;BMP_pressure;BME280_temperature;BME280_humidity;BME280_pressure;Samples;Min_cycle;Max_cycle;Signal;HPM_P1;HPM_P2
2022/03/02 00:01:40;;;;;;;12.00;7.80;;;;;;;-5.19;100.00;98001.72;4946453;28;21271;-51
2022/03/02 00:04:08;;;;;;;9.97;8.60;;;;;;;-5.31;100.00;97987.56;4964672;28;20946;-54
2022/03/02 00:06:36;;;;;;;9.50;8.57;;;;;;;-5.37;100.00;97991.28;4961812;28;20515;-50
2022/03/02 00:09:04;;;;;;;11.50;8.93;;;;;;;-5.44;100.00;97995.84;4932492;28;20240;-51
2022/03/02 00:11:32;;;;;;;12.07;8.43;;;;;;;-5.41;100.00;97987.97;4963284;28;20216;-52
2022/03/02 00:14:02;;;;;;;10.73;9.63;;;;;;;-5.44;100.00;97992.44;4952269;28;20210;-51
2022/03/02 00:16:30;;;;;;;10.03;9.13;;;;;;;-5.54;100.00;97997.97;4959223;28;20232;-50
2022/03/02 00:19:00;;;;;;;8.97;8.13;;;;;;;-5.58;100.00;97993.84;4946532;28;20538;-52
2022/03/02 00:21:28;;;;;;;10.40;8.07;;;;;;;-5.62;100.00;97991.47;4963998;28;20316;-49
2022/03/02 00:23:56;;;;;;;9.00;8.07;;;;;;;-5.68;100.00;98001.13;4927204;28;20213;-49
2022/03/02 00:26:24;;;;;;;11.43;8.40;;;;;;;-5.47;100.00;98002.91;4958506;28;20236;-54
2022/03/02 00:28:52;;;;;;;9.53;8.47;;;;;;;-5.10;100.00;97993.59;4948916;28;20224;-53
2022/03/02 00:31:20;;;;;;;11.03;8.27;;;;;;;-5.18;100.00;97993.06;4964498;28;20206;-54
2022/03/02 00:33:48;;;;;;;9.60;8.50;;;;;;;-5.28;100.00;97980.53;4950354;28;20211;-51
2022/03/02 00:36:18;;;;;;;10.90;9.17;;;;;;;-4.88;100.00;97990.91;4960581;28;20238;-54
2022/03/02 00:38:46;;;;;;;8.67;7.80;;;;;;;-4.74;100.00;97981.69;4926396;28;20240;-57
2022/03/02 00:41:14;;;;;;;9.53;8.53;;;;;;;-4.68;100.00;97991.78;4962069;28;20702;-55
2022/03/02 00:43:42;;;;;;;10.10;9.13;;;;;;;-4.68;100.00;97992.63;4949376;28;21364;-53
2022/03/02 00:46:10;;;;;;;9.27;7.80;;;;;;;-4.89;100.00;97983.22;4965635;28;20493;-54
2022/03/02 00:48:39;;;;;;;9.07;7.90;;;;;;;-4.97;100.00;97975.78;4948147;28;20661;-51
2022/03/02 00:51:07;;;;;;;10.37;9.37;;;;;;;-4.86;100.00;97983.09;4967773;28;20224;-50
2022/03/02 00:53:37;;;;;;;9.83;8.20;;;;;;;-4.83;100.00;97981.22;4962099;28;20330;-49
2022/03/02 00:56:05;;;;;;;9.50;8.40;;;;;;;-4.73;100.00;97989.41;4931800;28;20229;-50
2022/03/02 00:58:33;;;;;;;11.90;8.57;;;;;;;-4.79;100.00;97979.31;4964946;28;20201;-52
2022/03/02 01:01:02;;;;;;;12.20;9.37;;;;;;;-5.04;100.00;97982.13;4948945;28;20215;-53
2022/03/02 01:03:30;;;;;;;9.47;8.57;;;;;;;-5.14;100.00;97981.69;4959452;28;20566;-49
2022/03/02 01:05:59;;;;;;;10.13;9.13;;;;;;;-5.10;100.00;97978.91;4943159;28;20234;-52
2022/03/02 01:08:27;;;;;;;9.17;8.27;;;;;;;-5.16;100.00;97981.78;4963602;28;20241;-52
2022/03/02 01:10:56;;;;;;;8.53;7.33;;;;;;;-5.35;100.00;97973.13;4928557;28;20325;-51
2022/03/02 01:13:24;;;;;;;9.70;8.43;;;;;;;-5.28;100.00;97979.72;4958778;28;20475;-57
2022/03/02 01:15:52;;;;;;;10.03;8.03;;;;;;;-5.41;100.00;97966.47;4951290;28;20245;-51
2022/03/02 01:18:21;;;;;;;8.47;7.67;;;;;;;-5.28;100.00;97959.06;4961134;28;20237;-55
2022/03/02 01:20:49;;;;;;;8.40;7.60;;;;;;;-5.35;100.00;97949.88;4944335;28;20300;-53
2022/03/02 01:23:17;;;;;;;12.20;8.73;;;;;;;-5.53;100.00;97942.81;4963470;28;20664;-54
2022/03/02 01:25:45;;;;;;;10.67;7.60;;;;;;;-5.69;100.00;97941.81;4926049;28;20761;-49
2022/03/02 01:28:14;;;;;;;8.63;7.83;;;;;;;-5.76;100.00;97935.22;4965717;28;20461;-54
2022/03/02 01:30:42;;;;;;;9.20;8.30;;;;;;;-5.66;100.00;97941.66;4962238;28;20464;-51
2022/03/02 01:33:10;;;;;;;10.53;7.87;;;;;;;-5.59;100.00;97943.09;4951089;28;20473;-53
2022/03/02 01:35:38;;;;;;;7.97;7.27;;;;;;;-5.51;100.00;97940.19;4943614;28;21721;-54
2022/03/02 01:38:06;;;;;;;10.63;9.10;;;;;;;-5.58;100.00;97934.44;4965782;28;21013;-51
2022/03/02 01:40:34;;;;;;;9.57;8.20;;;;;;;-5.59;100.00;97934.50;4918862;28;21178;-47
2022/03/02 01:43:02;;;;;;;8.47;7.67;;;;;;;-5.83;100.00;97935.47;4964627;28;20617;-51
2022/03/02 01:45:31;;;;;;;8.87;7.97;;;;;;;-5.92;100.00;97940.16;4962772;28;20477;-50
2022/03/02 01:48:00;;;;;;;8.43;7.57;;;;;;;-6.03;100.00;97938.03;4949914;28;20459;-50
2022/03/02 01:50:28;;;;;;;9.27;8.37;;;;;;;-6.09;100.00;97930.56;4961342;28;21367;-51
2022/03/02 01:52:57;;;;;;;9.30;8.40;;;;;;;-6.08;100.00;97927.91;4947243;28;20850;-49
2022/03/02 01:55:25;;;;;;;10.17;8.57;;;;;;;-6.11;100.00;97920.28;4930357;28;20489;-54
2022/03/02 01:57:53;;;;;;;12.60;10.23;;;;;;;-6.19;100.00;97918.03;4962920;28;20584;-55
2022/03/02 02:00:23;;;;;;;12.40;10.40;;;;;;;-6.23;100.00;97908.72;4961369;28;20211;-55
2022/03/02 02:02:52;;;;;;;12.20;10.13;;;;;;;-6.26;100.00;97911.41;4967531;28;20206;-51
2022/03/02 02:05:20;;;;;;;13.57;9.53;;;;;;;-6.31;100.00;97898.72;4951925;28;20482;-55
2022/03/02 02:07:49;;;;;;;12.43;9.90;;;;;;;-6.32;100.00;97891.88;4952522;28;21125;-54
2022/03/02 02:10:17;;;;;;;11.33;9.50;;;;;;;-6.36;100.00;97890.31;4944667;28;20915;-49
2022/03/02 02:12:45;;;;;;;12.33;8.77;;;;;;;-6.32;100.00;97881.56;4949936;28;20978;-50
2022/03/02 02:15:13;;;;;;;9.50;7.80;;;;;;;-6.11;100.00;97874.69;4967076;28;20481;-51
2022/03/02 02:17:42;;;;;;;8.10;7.30;;;;;;;-6.05;100.00;97880.50;4964956;28;20248;-51
2022/03/02 02:20:14;;;;;;;8.90;8.00;;;;;;;-5.89;100.00;97883.25;4955172;28;20633;-54
2022/03/02 02:22:45;;;;;;;9.37;8.37;;;;;;;-5.75;100.00;97885.25;4966979;28;20815;-50
2022/03/02 02:25:13;;;;;;;9.40;8.47;;;;;;;-5.73;100.00;97888.63;4949279;28;20489;-48
2022/03/02 02:27:48;;;;;;;12.50;8.20;;;;;;;-5.76;100.00;97886.16;4926406;28;20396;-48
2022/03/02 02:30:16;;;;;;;10.53;7.93;;;;;;;-5.98;100.00;97867.25;4966057;28;20212;-52
2022/03/02 02:32:45;;;;;;;10.10;9.10;;;;;;;-6.14;100.00;97885.13;4969525;28;21249;-49
2022/03/02 02:35:13;;;;;;;11.70;9.10;;;;;;;-6.26;100.00;97877.88;4954836;28;21028;-48
2022/03/02 02:37:42;;;;;;;10.50;8.77;;;;;;;-6.34;100.00;97877.34;4964022;28;20510;-49
2022/03/02 02:40:12;;;;;;;10.27;9.17;;;;;;;-6.40;100.00;97875.88;4954056;28;20312;-49
2022/03/02 02:42:44;;;;;;;9.67;8.70;;;;;;;-6.38;100.00;97868.06;4931521;28;21153;-52
2022/03/02 02:45:15;;;;;;;10.13;8.97;;;;;;;-6.26;100.00;97863.25;4971765;28;20225;-53
2022/03/02 02:47:44;;;;;;;8.43;7.60;;;;;;;-6.22;100.00;97855.38;4968004;28;20515;-50
2022/03/02 02:50:39;;;;;;;13.07;8.73;;;;;;;-6.07;100.00;97856.50;4932183;28;20472;-49
2022/03/02 02:53:11;;;;;;;8.30;7.50;;;;;;;-5.85;100.00;97846.94;4970837;28;20465;-55
2022/03/02 02:55:40;;;;;;;10.93;7.83;;;;;;;-5.82;100.00;97841.66;4947347;28;20633;-51
2022/03/02 02:58:09;;;;;;;9.83;7.87;;;;;;;-6.05;100.00;97836.63;4924599;28;20508;-49
2022/03/02 03:00:39;;;;;;;8.67;7.77;;;;;;;-6.17;100.00;97835.41;4962469;28;20741;-48
2022/03/02 03:03:08;;;;;;;9.57;8.63;;;;;;;-6.15;100.00;97837.03;4961527;28;20512;-53
2022/03/02 03:05:36;;;;;;;8.90;7.73;;;;;;;-6.19;100.00;97830.31;4951800;28;20485;-52
2022/03/02 03:08:06;;;;;;;9.33;8.27;;;;;;;-6.27;100.00;97820.31;4962602;28;20202;-52
2022/03/02 03:10:35;;;;;;;8.57;7.77;;;;;;;-6.21;100.00;97824.38;4947091;28;20429;-54
2022/03/02 03:13:04;;;;;;;9.13;8.13;;;;;;;-6.36;100.00;97812.09;4917068;28;20984;-49
2022/03/02 03:15:34;;;;;;;11.20;8.90;;;;;;;-6.17;100.00;97833.66;4965106;28;20784;-49
2022/03/02 03:18:03;;;;;;;12.20;9.30;;;;;;;-6.02;100.00;97821.03;4961260;28;20878;-52
2022/03/02 03:20:31;;;;;;;10.40;8.43;;;;;;;-5.90;100.00;97829.97;4949093;28;20469;-51
2022/03/02 03:22:59;;;;;;;9.97;8.93;;;;;;;-5.99;100.00;97834.63;4938993;28;20468;-50
2022/03/02 03:25:28;;;;;;;10.37;9.37;;;;;;;-5.86;100.00;97828.94;4944860;28;20662;-50
2022/03/02 03:27:58;;;;;;;10.13;9.13;;;;;;;-6.03;100.00;97837.41;4967692;28;20456;-51
2022/03/02 03:30:27;;;;;;;10.57;8.67;;;;;;;-6.04;100.00;97835.72;4920032;28;20678;-49
2022/03/02 03:32:55;;;;;;;9.50;8.60;;;;;;;-5.89;100.00;97841.97;4967886;28;20472;-50
2022/03/02 03:35:25;;;;;;;8.57;7.77;;;;;;;-5.91;100.00;97843.78;4946322;28;20488;-48
2022/03/02 03:37:54;;;;;;;9.83;8.93;;;;;;;-6.11;100.00;97846.31;4967578;28;21009;-48
2022/03/02 03:40:22;;;;;;;9.53;8.23;;;;;;;-5.94;100.00;97842.16;4941089;28;20472;-49
2022/03/02 03:42:52;;;;;;;12.23;9.47;;;;;;;-5.98;100.00;97845.75;4966849;28;20467;-53
2022/03/02 03:45:21;;;;;;;13.83;8.93;;;;;;;-6.11;100.00;97848.03;4923316;28;20485;-53
2022/03/02 03:47:50;;;;;;;10.17;8.87;;;;;;;-6.14;100.00;97849.03;4965392;28;20206;-48
2022/03/02 03:50:19;;;;;;;9.60;8.40;;;;;;;-6.28;100.00;97830.66;4951628;28;20475;-47
2022/03/02 03:52:47;;;;;;;8.90;8.03;;;;;;;-6.31;100.00;97836.81;4965103;28;20468;-51
2022/03/02 03:55:16;;;;;;;12.40;8.20;;;;;;;-6.28;100.00;97835.84;4940773;28;20527;-49
2022/03/02 03:57:44;;;;;;;9.20;7.93;;;;;;;-6.33;100.00;97832.59;4964014;28;20576;-55
2022/03/02 04:00:15;;;;;;;9.60;8.27;;;;;;;-6.22;100.00;97842.50;4922020;28;21006;-49
2022/03/02 04:02:45;;;;;;;11.20;8.70;;;;;;;-6.27;100.00;97847.81;4963401;28;20332;-47
2022/03/02 04:05:14;;;;;;;11.33;8.50;;;;;;;-6.38;100.00;97837.13;4959921;28;20476;-51
2022/03/02 04:07:45;;;;;;;13.32;11.93;;;;;;;-6.20;100.00;97838.97;4928330;28;20814;-52
2022/03/02 04:10:14;;;;;;;9.73;8.83;;;;;;;-6.37;100.00;97846.53;4939307;28;20206;-48
2022/03/02 04:12:42;;;;;;;9.83;8.93;;;;;;;-6.45;100.00;97841.66;4942647;28;20481;-48
2022/03/02 04:15:11;;;;;;;12.20;9.10;;;;;;;-6.33;100.00;97841.19;4917990;28;20496;-49
2022/03/02 04:17:39;;;;;;;9.80;8.37;;;;;;;-6.46;100.00;97833.09;4964311;28;20512;-52
2022/03/02 04:20:10;;;;;;;10.50;8.63;;;;;;;-6.47;100.00;97831.44;4964448;28;21000;-51
2022/03/02 04:22:38;;;;;;;11.20;8.60;;;;;;;-6.39;100.00;97820.81;4951304;28;20475;-52
2022/03/02 04:25:07;;;;;;;10.63;8.50;;;;;;;-6.42;100.00;97818.38;4964306;28;20487;-49
2022/03/02 04:27:35;;;;;;;10.53;8.97;;;;;;;-6.43;100.00;97814.13;4927021;28;20468;-52
2022/03/02 04:30:04;;;;;;;10.13;8.43;;;;;;;-6.33;100.00;97801.66;4938987;28;20456;-51
2022/03/02 04:32:33;;;;;;;10.37;8.83;;;;;;;-6.02;100.00;97806.38;4920652;28;20544;-50
2022/03/02 04:35:01;;;;;;;12.10;9.83;;;;;;;-6.03;100.00;97803.88;4963434;28;20536;-49
2022/03/02 04:37:30;;;;;;;11.77;9.50;;;;;;;-6.12;100.00;97794.75;4944506;28;20488;-54
2022/03/02 04:39:58;;;;;;;10.10;8.87;;;;;;;-6.28;100.00;97781.66;4963725;28;20485;-55
2022/03/02 04:42:26;;;;;;;8.83;7.97;;;;;;;-6.20;100.00;97781.34;4937700;28;20518;-54
2022/03/02 04:44:54;;;;;;;15.00;9.83;;;;;;;-6.20;100.00;97782.22;4952248;28;20600;-54
2022/03/02 04:47:22;;;;;;;10.13;8.23;;;;;;;-5.92;100.00;97782.72;4927248;28;20472;-51
2022/03/02 04:49:51;;;;;;;11.67;9.03;;;;;;;-5.96;100.00;97780.28;4932535;28;20465;-49
2022/03/02 04:52:19;;;;;;;9.90;8.33;;;;;;;-6.16;100.00;97770.84;4963768;28;20464;-50
2022/03/02 04:55:07;;;;;;;11.37;8.87;;;;;;;-6.02;100.00;97767.69;4943637;28;20612;-52
2022/03/02 04:57:36;;;;;;;12.77;9.00;;;;;;;-5.71;100.00;97768.06;4942703;28;20583;-49
2022/03/02 05:00:07;;;;;;;9.53;8.53;;;;;;;-5.76;100.00;97770.81;4946153;28;20488;-54
2022/03/02 05:02:35;;;;;;;9.87;8.87;;;;;;;-5.83;100.00;97766.84;4920023;28;20469;-49
2022/03/02 05:05:04;;;;;;;10.33;9.20;;;;;;;-5.59;100.00;97777.00;4963898;28;21032;-49
2022/03/02 05:07:32;;;;;;;13.00;8.70;;;;;;;-5.73;100.00;97752.63;4950717;28;20216;-52
2022/03/02 05:10:01;;;;;;;9.13;8.23;;;;;;;-5.74;100.00;97766.44;4964319;28;20553;-50
2022/03/02 05:12:29;;;;;;;10.17;9.17;;;;;;;-5.84;100.00;97766.03;4942951;28;20478;-50
2022/03/02 05:14:57;;;;;;;9.83;8.83;;;;;;;-5.78;100.00;97774.41;4943207;28;20233;-54
2022/03/02 05:17:25;;;;;;;10.97;9.07;;;;;;;-5.83;100.00;97766.84;4921062;28;20474;-52
2022/03/02 05:19:54;;;;;;;10.27;8.70;;;;;;;-5.86;100.00;97775.56;4966032;28;20441;-50
2022/03/02 05:22:22;;;;;;;13.45;11.32;;;;;;;-5.91;100.00;97763.75;4965882;28;20467;-50
2022/03/02 05:24:50;;;;;;;13.33;10.23;;;;;;;-5.81;100.00;97772.78;4961322;28;20467;-54
2022/03/02 05:27:19;;;;;;;13.07;9.90;;;;;;;-5.84;100.00;97768.59;4963047;28;20469;-48
2022/03/02 05:29:47;;;;;;;13.70;12.00;;;;;;;-5.79;100.00;97777.88;4923617;28;20584;-55
2022/03/02 05:32:15;;;;;;;14.60;11.57;;;;;;;-5.83;100.00;97772.84;4962792;28;20210;-50
2022/03/02 05:34:43;;;;;;;12.17;10.50;;;;;;;-5.88;100.00;97769.63;4924538;28;20233;-54
2022/03/02 05:37:11;;;;;;;13.40;10.53;;;;;;;-5.85;100.00;97772.09;4969057;28;20213;-53
2022/03/02 05:39:40;;;;;;;17.97;11.73;;;;;;;-5.83;100.00;97772.84;4939801;28;20430;-51
2022/03/02 05:42:08;;;;;;;14.73;13.20;;;;;;;-5.84;100.00;97770.31;4970939;28;20214;-55
2022/03/02 05:44:38;;;;;;;18.63;12.82;;;;;;;-5.85;100.00;97766.06;4916271;28;20597;-53
2022/03/02 05:47:06;;;;;;;13.93;10.87;;;;;;;-5.94;100.00;97769.06;4965784;28;20634;-52
2022/03/02 05:49:34;;;;;;;17.40;10.93;;;;;;;-5.97;100.00;97763.13;4922749;28;20222;-52
2022/03/02 05:52:03;;;;;;;11.90;9.27;;;;;;;-6.04;100.00;97760.91;4970205;28;20465;-52
2022/03/02 05:54:31;;;;;;;13.00;9.83;;;;;;;-6.11;100.00;97757.75;4938300;28;21080;-52
2022/03/02 05:56:59;;;;;;;11.00;9.90;;;;;;;-6.04;100.00;97760.91;4970089;28;20201;-53
2022/03/02 05:59:27;;;;;;;11.67;9.97;;;;;;;-6.06;100.00;97752.41;4920263;28;20598;-48
2022/03/02 06:01:56;;;;;;;13.23;9.87;;;;;;;-6.06;100.00;97762.72;4947775;28;20216;-51
2022/03/02 06:04:25;;;;;;;13.33;10.40;;;;;;;-6.06;100.00;97767.88;4917327;28;20230;-48
2022/03/02 06:06:53;;;;;;;11.27;9.47;;;;;;;-5.89;100.00;97774.84;4962259;28;20457;-49
2022/03/02 06:09:21;;;;;;;13.23;10.13;;;;;;;-5.68;100.00;97768.75;4966387;28;20210;-51
2022/03/02 06:11:50;;;;;;;11.07;9.87;;;;;;;-5.64;100.00;97766.03;4965765;28;20213;-53
2022/03/02 06:14:18;;;;;;;13.73;10.50;;;;;;;-5.38;100.00;97764.88;4946915;28;20213;-53
2022/03/02 06:16:46;;;;;;;11.80;9.33;;;;;;;-5.48;100.00;97766.19;4946350;28;20229;-55
2022/03/02 06:19:17;;;;;;;12.47;9.80;;;;;;;-5.47;100.00;97762.72;4927361;28;20492;-54
2022/03/02 06:21:48;;;;;;;11.17;9.83;;;;;;;-5.24;100.00;97762.47;4969444;28;20909;-52
2022/03/02 06:24:17;;;;;;;14.88;13.13;;;;;;;-4.99;100.00;97760.50;4964673;28;20472;-50
2022/03/02 06:26:46;;;;;;;15.43;13.52;;;;;;;-5.11;100.00;97761.94;4965324;28;20872;-54
2022/03/02 06:29:14;;;;;;;14.98;13.43;;;;;;;-5.08;100.00;97748.84;4945115;28;20444;-50
2022/03/02 06:31:42;;;;;;;16.25;14.65;;;;;;;-5.09;100.00;97760.09;4946110;28;22443;-51
2022/03/02 06:34:11;;;;;;;13.87;11.37;;;;;;;-5.03;100.00;97744.31;4960732;28;20570;-52
2022/03/02 06:36:40;;;;;;;10.60;9.50;;;;;;;-4.77;100.00;97747.38;4937327;28;20505;-53
2022/03/02 06:39:08;;;;;;;12.00;9.60;;;;;;;-4.65;100.00;97754.56;4967619;28;20225;-49
2022/03/02 06:41:46;;;;;;;12.10;10.80;;;;;;;-4.43;100.00;97757.84;4965429;28;20326;-54
2022/03/02 06:44:20;;;;;;;14.77;11.95;;;;;;;-4.33;100.00;97753.88;4962492;28;20991;-53
2022/03/02 06:46:52;;;;;;;16.52;12.80;;;;;;;-4.12;100.00;97761.47;4961944;28;20468;-56
2022/03/02 06:49:25;;;;;;;11.07;9.97;;;;;;;-3.89;100.00;97762.91;4944052;28;20585;-53
2022/03/02 06:51:58;;;;;;;11.53;9.97;;;;;;;-3.84;100.00;97762.63;4918429;28;20261;-54
2022/03/02 06:54:29;;;;;;;11.83;9.53;;;;;;;-4.13;100.00;97763.22;4967167;28;20294;-52
2022/03/02 06:56:59;;;;;;;13.80;10.67;;;;;;;-3.81;100.00;97765.91;4965412;28;20260;-50
2022/03/02 06:59:31;;;;;;;12.17;9.97;;;;;;;-3.84;100.00;97765.22;4965194;28;20702;-50
2022/03/02 07:02:02;;;;;;;14.25;12.70;;;;;;;-3.55;100.00;97766.31;4947526;28;20456;-49
2022/03/02 07:04:35;;;;;;;16.53;12.03;;;;;;;-3.44;100.00;97778.69;4953278;28;20637;-53
2022/03/02 07:07:05;;;;;;;11.73;9.83;;;;;;;-3.31;100.00;97767.69;4922371;28;20209;-52
2022/03/02 07:09:34;;;;;;;15.40;11.20;;;;;;;-3.37;100.00;97774.88;4969303;28;20461;-50
2022/03/02 07:12:03;;;;;;;15.73;13.93;;;;;;;-3.22;100.00;97773.22;4966994;28;20460;-52
2022/03/02 07:14:32;;;;;;;16.55;12.85;;;;;;;-2.97;100.00;97764.06;4968090;28;20494;-58
2022/03/02 07:17:02;;;;;;;15.25;13.60;;;;;;;-3.13;100.00;97768.44;4951073;28;20457;-50
2022/03/02 07:19:30;;;;;;;13.37;11.57;;;;;;;-3.06;100.00;97772.38;4952146;28;20245;-48
2022/03/02 07:22:02;;;;;;;10.33;9.23;;;;;;;-3.01;100.00;97765.16;4924685;28;20654;-49
2022/03/02 07:24:38;;;;;;;13.13;10.03;;;;;;;-2.95;100.00;97767.41;4958226;28;20210;-48
2022/03/02 07:27:06;;;;;;;11.23;10.03;;;;;;;-2.53;100.00;97757.31;4961398;28;20380;-52
2022/03/02 07:29:36;;;;;;;11.13;9.47;;;;;;;-2.36;100.00;97761.53;4949538;28;20366;-47
2022/03/02 07:32:05;;;;;;;14.07;12.57;;;;;;;-2.17;100.00;97763.06;4944801;28;20463;-51
2022/03/02 07:34:34;;;;;;;13.10;11.57;;;;;;;-2.03;100.00;97762.25;4950652;28;20460;-52
2022/03/02 07:37:03;;;;;;;15.35;13.40;;;;;;;-1.91;100.00;97771.09;4923356;28;20560;-53
2022/03/02 07:39:32;;;;;;;13.38;12.02;;;;;;;-1.81;100.00;97764.41;4966229;28;20464;-51
2022/03/02 07:42:00;;;;;;;13.75;12.35;;;;;;;-1.54;100.00;97763.69;4962112;28;20452;-51
2022/03/02 07:44:28;;;;;;;13.15;11.95;;;;;;;-1.44;100.00;97758.75;4966896;28;20456;-52
2022/03/02 07:46:57;;;;;;;13.30;11.17;;;;;;;-1.27;100.00;97759.47;4937995;28;20236;-53
2022/03/02 07:49:25;;;;;;;14.90;12.45;;;;;;;-1.35;100.00;97765.13;4928878;28;20467;-54
2022/03/02 07:51:54;;;;;;;11.97;10.60;;;;;;;-1.16;100.00;97762.22;4925418;28;20205;-52
2022/03/02 07:54:23;;;;;;;14.15;12.68;;;;;;;-1.15;100.00;97756.09;4958683;28;20471;-51
2022/03/02 07:56:53;;;;;;;11.23;9.90;;;;;;;-1.10;100.00;97766.22;4966035;28;20209;-56
2022/03/02 07:59:22;;;;;;;17.50;10.50;;;;;;;-0.99;100.00;97771.56;4964949;28;20210;-51
2022/03/02 08:01:50;;;;;;;11.33;10.03;;;;;;;-0.92;100.00;97778.09;4950558;28;20232;-54
2022/03/02 08:04:18;;;;;;;11.47;10.23;;;;;;;-0.70;100.00;97773.28;4962221;28;20751;-54
2022/03/02 08:06:47;;;;;;;11.50;10.07;;;;;;;-0.73;100.00;97762.13;4912830;28;20903;-52
2022/03/02 08:09:15;;;;;;;10.97;9.87;;;;;;;-0.94;100.00;97769.53;4963419;28;20206;-52
2022/03/02 08:11:43;;;;;;;12.80;9.90;;;;;;;-0.73;100.00;97759.53;4954296;28;20341;-47
2022/03/02 08:14:12;;;;;;;15.00;12.35;;;;;;;-0.78;100.00;97760.75;4967435;28;20463;-53
2022/03/02 08:16:43;;;;;;;12.00;10.70;;;;;;;-0.30;100.00;97755.06;4947483;28;20447;-55
2022/03/02 08:19:11;;;;;;;13.57;10.17;;;;;;;-0.55;100.00;97751.44;4964769;28;20252;-52
2022/03/02 08:21:42;;;;;;;11.43;10.33;;;;;;;-0.16;100.00;97754.97;4946866;28;20226;-52
2022/03/02 08:24:13;;;;;;;12.70;11.43;;;;;;;-0.17;100.00;97755.91;4915956;28;20471;-53
2022/03/02 08:26:41;;;;;;;15.68;12.85;;;;;;;-0.38;100.00;97760.75;4947260;28;20627;-52
2022/03/02 08:29:12;;;;;;;12.27;10.40;;;;;;;-0.22;100.00;97757.13;4963944;28;20222;-52
2022/03/02 08:31:42;;;;;;;11.38;10.27;;;;;;;-0.26;100.00;97760.88;4961320;28;20713;-52
2022/03/02 08:34:11;;;;;;;14.75;13.35;;;;;;;0.18;100.00;97753.63;4946243;28;20491;-50
2022/03/02 08:36:39;;;;;;;13.10;11.73;;;;;;;0.80;100.00;97752.00;4947369;28;20240;-51
2022/03/02 08:39:08;;;;;;;13.60;12.15;;;;;;;1.05;100.00;97750.25;4918058;28;20465;-55
2022/03/02 08:41:36;;;;;;;10.90;9.83;;;;;;;0.51;100.00;97745.25;4948597;28;20433;-54
2022/03/02 08:44:05;;;;;;;12.07;9.63;;;;;;;1.28;100.00;97738.97;4961015;28;20213;-52
2022/03/02 08:46:35;;;;;;;11.47;10.27;;;;;;;1.13;100.00;97747.91;4959869;28;20221;-53
2022/03/02 08:49:03;;;;;;;11.60;10.13;;;;;;;1.18;100.00;97742.38;4949259;28;20248;-51
2022/03/02 08:51:32;;;;;;;11.37;10.17;;;;;;;1.49;100.00;97745.38;4942610;28;20407;-50
2022/03/02 08:54:03;;;;;;;11.03;9.93;;;;;;;1.51;100.00;97744.28;4967460;28;20674;-55
2022/03/02 08:56:35;;;;;;;15.93;10.50;;;;;;;1.69;100.00;97739.47;4920570;28;20239;-56
2022/03/02 08:59:04;;;;;;;12.07;10.40;;;;;;;1.82;100.00;97738.59;4950528;28;20225;-53
2022/03/02 09:01:33;;;;;;;12.67;10.37;;;;;;;1.61;100.00;97717.50;4960568;28;20366;-51
2022/03/02 09:04:03;;;;;;;12.77;11.48;;;;;;;1.73;100.00;97737.47;4944538;28;21014;-53
2022/03/02 09:06:32;;;;;;;13.60;12.15;;;;;;;1.90;100.00;97733.59;4946211;28;20905;-51
2022/03/02 09:09:00;;;;;;;14.60;13.15;;;;;;;2.29;100.00;97734.13;4961488;28;20981;-50
2022/03/02 09:11:28;;;;;;;14.30;12.77;;;;;;;2.37;100.00;97733.56;4919045;28;20455;-50
2022/03/02 09:13:56;;;;;;;15.80;13.02;;;;;;;2.44;100.00;97728.66;4956454;28;20466;-50
2022/03/02 09:16:24;;;;;;;14.63;11.50;;;;;;;2.01;100.00;97725.78;4964847;28;20684;-48
2022/03/02 09:18:52;;;;;;;13.30;11.80;;;;;;;2.25;100.00;97737.09;4971914;28;20237;-53
2022/03/02 09:21:23;;;;;;;12.73;10.30;;;;;;;2.13;100.00;97718.78;4942836;28;20466;-48
2022/03/02 09:23:53;;;;;;;10.80;9.70;;;;;;;2.43;100.00;97730.47;4964896;28;20587;-51
2022/03/02 09:26:26;;;;;;;11.67;10.23;;;;;;;2.40;100.00;97730.69;4942993;28;20364;-52
2022/03/02 09:28:54;;;;;;;11.03;9.90;;;;;;;2.54;100.00;97732.25;4954580;28;20304;-48
2022/03/02 09:31:23;;;;;;;14.97;11.97;;;;;;;2.47;100.00;97723.22;4964580;28;20208;-52
2022/03/02 09:33:56;;;;;;;13.23;11.17;;;;;;;2.96;100.00;97725.53;4967530;28;20559;-52
2022/03/02 09:36:27;;;;;;;12.07;11.00;;;;;;;2.87;100.00;97714.00;4939746;28;20626;-56
2022/03/02 09:38:55;;;;;;;12.43;10.23;;;;;;;2.97;100.00;97728.00;4968512;28;20361;-53
2022/03/02 09:41:29;;;;;;;14.65;13.15;;;;;;;3.13;100.00;97718.94;4966669;28;20459;-52
2022/03/02 09:43:59;;;;;;;13.30;11.93;;;;;;;2.68;100.00;97718.09;4922288;28;20829;-52
2022/03/02 09:46:33;;;;;;;13.37;11.20;;;;;;;3.11;100.00;97713.00;4953531;28;20786;-48
2022/03/02 09:49:06;;;;;;;12.77;11.50;;;;;;;3.69;99.88;97712.63;4966405;28;20232;-47
2022/03/02 09:51:37;;;;;;;14.47;12.00;;;;;;;3.23;100.00;97719.03;4935948;28;20817;-54
2022/03/02 09:54:08;;;;;;;13.07;11.37;;;;;;;3.37;100.00;97710.88;4969202;28;20238;-52
2022/03/02 09:56:37;;;;;;;12.73;11.40;;;;;;;3.84;92.57;97718.41;4965242;28;20420;-55
2022/03/02 09:59:06;;;;;;;13.53;11.27;;;;;;;3.86;93.10;97716.47;4900772;28;20387;-53
2022/03/02 10:01:36;;;;;;;14.23;10.90;;;;;;;3.48;100.00;97713.44;4960799;28;20230;-54
2022/03/02 10:04:13;;;;;;;14.90;11.83;;;;;;;4.02;96.88;97716.03;4948652;28;20214;-56
2022/03/02 10:06:44;;;;;;;12.30;10.83;;;;;;;4.25;88.80;97713.22;4950365;28;20947;-54
2022/03/02 10:09:13;;;;;;;16.37;11.73;;;;;;;4.26;86.01;97709.63;4947538;28;20535;-54
2022/03/02 10:11:42;;;;;;;10.73;9.73;;;;;;;4.53;84.37;97710.88;4964661;28;20208;-50
2022/03/02 10:14:11;;;;;;;13.82;12.45;;;;;;;4.47;84.01;97700.91;4922102;28;20595;-51
2022/03/02 10:16:44;;;;;;;11.43;10.40;;;;;;;4.30;79.82;97702.34;4955166;28;20269;-54
2022/03/02 10:19:34;;;;;;;14.03;10.67;;;;;;;4.30;85.13;97700.53;4950714;28;20237;-54
2022/03/02 10:22:26;;;;;;;12.60;11.30;;;;;;;4.18;87.40;97691.97;4928026;28;20218;-49
2022/03/02 10:25:02;;;;;;;16.55;13.35;;;;;;;4.17;86.17;97690.28;4955325;28;20645;-56
2022/03/02 10:27:35;;;;;;;13.00;11.13;;;;;;;4.04;88.54;97692.28;4949284;28;20219;-55
2022/03/02 10:30:06;;;;;;;15.30;11.50;;;;;;;4.14;86.43;97692.34;4924437;28;20213;-57
2022/03/02 10:32:36;;;;;;;14.07;11.90;;;;;;;4.44;83.76;97693.31;4949476;28;20207;-53
2022/03/02 10:35:08;;;;;;;12.10;10.87;;;;;;;4.04;89.30;97693.13;4953605;28;20234;-54
2022/03/02 10:37:39;;;;;;;12.27;11.07;;;;;;;4.69;82.63;97683.28;4935260;28;20218;-56
2022/03/02 10:40:11;;;;;;;16.43;11.90;;;;;;;4.64;80.66;97681.06;4970033;28;20206;-51
2022/03/02 10:42:41;;;;;;;13.03;11.73;;;;;;;5.00;80.85;97676.16;4950958;28;20225;-52
2022/03/02 10:45:15;;;;;;;15.60;11.67;;;;;;;4.65;82.00;97682.72;4922534;28;20238;-54
2022/03/02 10:47:48;;;;;;;13.53;11.07;;;;;;;4.42;79.24;97671.63;4952107;28;21514;-49
2022/03/02 10:50:16;;;;;;;11.40;9.97;;;;;;;4.54;74.65;97667.06;4950617;28;20224;-56
2022/03/02 10:52:47;;;;;;;11.80;10.30;;;;;;;4.77;76.23;97665.06;4951530;28;20213;-51
2022/03/02 10:55:17;;;;;;;11.07;9.93;;;;;;;5.03;69.62;97654.88;4948524;28;20233;-56
2022/03/02 10:57:48;;;;;;;13.13;10.30;;;;;;;5.02;69.90;97660.25;4949189;28;20417;-53
2022/03/02 11:00:18;;;;;;;13.17;11.07;;;;;;;4.69;74.20;97657.88;4967386;28;20650;-54
2022/03/02 11:02:51;;;;;;;12.73;11.53;;;;;;;4.73;78.72;97658.41;4927452;28;20263;-53
2022/03/02 11:05:20;;;;;;;15.63;11.77;;;;;;;4.87;78.87;97657.19;4966044;28;20229;-53
2022/03/02 11:07:49;;;;;;;11.60;10.50;;;;;;;4.67;86.85;97657.19;4934057;28;20877;-53
2022/03/02 11:10:20;;;;;;;13.67;11.77;;;;;;;4.81;86.37;97649.88;4951019;28;20210;-51
2022/03/02 11:12:50;;;;;;;11.90;10.60;;;;;;;4.88;78.76;97651.81;4963885;28;20224;-54
2022/03/02 11:15:19;;;;;;;13.37;10.53;;;;;;;4.42;74.46;97650.63;4953663;28;21126;-49
2022/03/02 11:17:55;;;;;;;12.50;11.07;;;;;;;4.58;75.08;97642.25;4924759;28;20218;-52
2022/03/02 11:20:25;;;;;;;14.20;10.17;;;;;;;4.56;73.03;97623.19;4965102;28;20279;-57
2022/03/02 11:22:58;;;;;;;13.37;11.97;;;;;;;4.32;77.62;97637.47;4954194;28;20529;-53
2022/03/02 11:25:44;;;;;;;13.30;11.13;;;;;;;4.69;76.50;97622.91;4933643;28;20229;-52
2022/03/02 11:28:15;;;;;;;12.90;11.67;;;;;;;4.68;76.37;97629.97;4966708;28;20213;-54
2022/03/02 11:30:51;;;;;;;12.23;10.80;;;;;;;4.73;71.43;97629.53;4950187;28;20210;-52